Time;durP1;ratioP1;P1;durP2;ratioP2;P2;SDS_P1;SDS_P2;PMS_P1;PMS_P2;Temp;Humidity;BMP_temperature;BMP_pressure;BME280_temperature;BME280_humidity;BME280_pressure;Samples;Min_cycle;Max_cycle;Signal;HPM_P1;HPM_P2
2022/09/23 00:03:22;;;;;;;4.00;2.60;;;21.50;69.50;;;;;;214737;1299;22701;-49
2022/09/23 00:08:27;;;;;;;6.00;2.60;;;21.50;69.90;;;;;;214665;1299;22803;-50
2022/09/23 00:13:33;;;;;;;5.20;2.70;;;21.50;69.60;;;;;;214868;1299;24273;-48
2022/09/23 00:18:38;;;;;;;5.00;2.30;;;21.50;69.40;;;;;;214925;1299;22825;-46
2022/09/23 00:23:42;;;;;;;4.80;2.90;;;21.50;69.60;;;;;;215093;1300;22632;-49
2022/09/23 00:28:47;;;;;;;5.10;2.60;;;21.50;69.40;;;;;;214940;1299;24340;-48
2022/09/23 00:33:53;;;;;;;4.80;2.70;;;21.50;69.50;;;;;;214908;1297;22571;-48
2022/09/23 00:38:57;;;;;;;6.30;2.80;;;21.40;69.60;;;;;;214623;1299;22596;-46
2022/09/23 00:44:02;;;;;;;4.50;2.60;;;21.40;69.60;;;;;;214619;1299;22589;-50
2022/09/23 00:49:09;;;;;;;4.60;3.10;;;21.40;69.40;;;;;;214847;1299;23108;-48
2022/09/23 00:54:13;;;;;;;4.90;2.80;;;21.50;69.20;;;;;;215124;1299;22573;-48
2022/09/23 00:59:17;;;;;;;4.80;2.60;;;21.50;68.90;;;;;;215103;1297;22594;-48
2022/09/23 01:04:23;;;;;;;7.40;2.90;;;21.50;68.70;;;;;;214957;1296;22562;-50
2022/09/23 01:09:27;;;;;;;5.10;3.20;;;21.60;68.80;;;;;;214896;1296;23758;-50
2022/09/23 01:14:43;;;;;;;4.70;2.80;;;21.60;68.50;;;;;;215086;1297;25284;-49
2022/09/23 01:20:11;;;;;;;13.10;3.10;;;21.60;68.30;;;;;;214771;1297;190631;-48
2022/09/23 01:25:37;;;;;;;4.90;2.50;;;21.60;68.20;;;;;;214926;1297;25284;-49
2022/09/23 01:31:07;;;;;;;4.80;2.80;;;21.70;68.20;;;;;;215030;1297;25352;-48
2022/09/23 01:36:28;;;;;;;4.60;2.50;;;21.70;68.70;;;;;;214807;1299;25522;-49
2022/09/23 01:41:41;;;;;;;4.70;2.60;;;21.70;68.00;;;;;;214987;1297;22671;-48
2022/09/23 01:47:00;;;;;;;3.80;2.30;;;21.70;68.30;;;;;;214938;1297;25365;-49
2022/09/23 01:52:25;;;;;;;5.00;2.60;;;21.70;68.30;;;;;;215000;1299;22768;-48
2022/09/23 01:57:34;;;;;;;3.90;2.50;;;21.70;68.00;;;;;;215019;1297;22588;-48
2022/09/23 02:03:13;;;;;;;5.20;2.70;;;21.70;68.00;;;;;;215082;1299;24270;-49
2022/09/23 02:08:23;;;;;;;7.60;2.80;;;21.70;68.30;;;;;;214836;1299;25284;-48
2022/09/23 02:13:52;;;;;;;5.00;2.90;;;21.70;67.90;;;;;;214770;1299;22654;-47
2022/09/23 02:19:10;;;;;;;4.50;2.70;;;21.70;68.10;;;;;;214964;1296;25366;-49
2022/09/23 02:24:25;;;;;;;3.90;2.40;;;21.70;68.10;;;;;;215232;1296;24214;-48
2022/09/23 02:29:51;;;;;;;4.30;2.50;;;21.70;67.80;;;;;;215138;1296;22606;-49
2022/09/23 02:35:33;;;;;;;4.80;2.50;;;21.60;67.80;;;;;;214778;1299;24167;-50
2022/09/23 02:40:46;;;;;;;5.00;2.90;;;21.60;67.60;;;;;;215105;1296;22743;-50
2022/09/23 02:45:50;;;;;;;4.20;2.70;;;21.70;67.70;;;;;;215132;1299;22588;-48
2022/09/23 02:50:53;;;;;;;5.70;2.60;;;21.70;67.50;;;;;;214784;1299;24296;-47
2022/09/23 02:55:57;;;;;;;6.90;3.00;;;21.70;67.70;;;;;;214816;1299;25247;-47
2022/09/23 03:01:14;;;;;;;4.10;2.60;;;21.70;67.50;;;;;;214831;1297;22657;-48
2022/09/23 03:06:31;;;;;;;5.20;3.10;;;21.70;67.40;;;;;;214929;1297;22596;-46
2022/09/23 03:11:38;;;;;;;4.30;2.60;;;21.70;67.30;;;;;;214921;1299;24236;-50
2022/09/23 03:16:54;;;;;;;4.10;2.70;;;21.70;67.60;;;;;;215235;1299;22874;-50
2022/09/23 03:22:04;;;;;;;3.60;2.30;;;21.70;67.30;;;;;;215277;1299;22571;-49
2022/09/23 03:27:12;;;;;;;3.90;2.70;;;21.70;67.20;;;;;;214904;1299;22560;-48
2022/09/23 03:32:19;;;;;;;6.40;2.70;;;21.70;67.30;;;;;;215218;1296;22562;-47
2022/09/23 03:37:31;;;;;;;3.40;2.20;;;21.70;67.30;;;;;;215030;1296;24341;-48
2022/09/23 03:42:36;;;;;;;6.00;2.70;;;21.70;67.30;;;;;;215163;1296;25318;-46
2022/09/23 03:47:49;;;;;;;6.10;2.50;;;21.60;67.20;;;;;;215249;1296;24325;-50
2022/09/23 03:53:21;;;;;;;;;;;21.70;67.20;;;;;;215308;1296;25264;-48
2022/09/23 03:58:25;;;;;;;4.30;2.80;;;21.70;67.10;;;;;;214882;1297;22592;-47
2022/09/23 04:03:29;;;;;;;3.80;2.50;;;21.70;67.10;;;;;;215060;1296;24417;-49
2022/09/23 04:08:33;;;;;;;4.30;2.20;;;21.70;67.10;;;;;;215142;1296;24440;-47
2022/09/23 04:13:36;;;;;;;3.30;2.10;;;21.70;67.00;;;;;;214832;1299;25287;-52
2022/09/23 04:18:40;;;;;;;4.10;2.50;;;21.70;67.10;;;;;;215017;1299;23965;-47
2022/09/23 04:23:45;;;;;;;5.40;2.40;;;21.70;67.50;;;;;;215049;1299;24334;-47
2022/09/23 04:28:49;;;;;;;3.80;2.10;;;21.70;66.90;;;;;;214960;1299;24371;-47
2022/09/23 04:33:53;;;;;;;3.60;2.30;;;21.70;66.90;;;;;;214808;1296;24574;-48
2022/09/23 04:38:56;;;;;;;4.50;2.80;;;21.60;66.80;;;;;;215115;1296;22606;-49
2022/09/23 04:44:01;;;;;;;4.60;2.80;;;21.70;66.70;;;;;;214600;1299;22732;-49
2022/09/23 04:49:05;;;;;;;4.30;2.30;;;21.60;66.70;;;;;;215402;1300;24173;-48
2022/09/23 04:54:12;;;;;;;4.70;2.50;;;21.70;66.70;;;;;;215078;1300;22593;-47
2022/09/23 04:59:16;;;;;;;4.00;2.30;;;21.70;66.70;;;;;;215166;1297;26624;-47
2022/09/23 05:04:20;;;;;;;4.40;2.60;;;21.70;66.90;;;;;;214869;1297;24305;-51
2022/09/23 05:09:23;;;;;;;4.20;2.60;;;21.60;66.50;;;;;;214904;1299;24265;-48
2022/09/23 05:14:27;;;;;;;3.60;2.60;;;21.70;66.60;;;;;;214823;1297;22564;-48
2022/09/23 05:19:32;;;;;;;3.80;2.70;;;21.70;66.60;;;;;;214995;1299;22576;-48
2022/09/23 05:24:40;;;;;;;4.80;2.80;;;21.70;66.60;;;;;;215113;1297;22655;-48
2022/09/23 05:29:44;;;;;;;4.20;2.50;;;21.70;66.40;;;;;;214842;1299;22669;-48
2022/09/23 05:34:48;;;;;;;4.10;2.40;;;21.70;66.40;;;;;;214866;1299;25290;-46
2022/09/23 05:39:52;;;;;;;4.40;2.50;;;21.70;66.30;;;;;;214799;1299;22588;-48
2022/09/23 05:44:55;;;;;;;3.50;2.50;;;21.70;66.30;;;;;;214913;1300;24462;-49
2022/09/23 05:50:00;;;;;;;4.30;2.60;;;21.70;66.30;;;;;;215036;1299;22821;-48
2022/09/23 05:55:04;;;;;;;5.30;2.70;;;21.70;66.30;;;;;;215031;1299;23308;-49
2022/09/23 06:00:09;;;;;;;3.80;2.60;;;21.70;66.20;;;;;;214918;1299;25329;-47
2022/09/23 06:05:17;;;;;;;5.60;2.60;;;21.80;66.20;;;;;;214850;1299;24673;-47
2022/09/23 06:10:25;;;;;;;4.90;2.70;;;21.70;66.10;;;;;;214981;1296;24476;-47
2022/09/23 06:15:29;;;;;;;6.00;2.60;;;21.80;66.10;;;;;;216386;1299;22566;-47
2022/09/23 06:20:37;;;;;;;9.80;2.70;;;21.70;66.00;;;;;;215016;1297;22874;-49
2022/09/23 06:25:44;;;;;;;8.30;2.40;;;21.80;66.30;;;;;;215079;1300;22667;-48
2022/09/23 06:30:56;;;;;;;4.20;2.30;;;21.80;66.30;;;;;;214896;1299;24171;-48
2022/09/23 06:36:02;;;;;;;;;;;21.90;66.50;;;;;;214923;1299;22678;-49
2022/09/23 06:41:06;;;;;;;8.30;2.60;;;22.00;67.00;;;;;;214937;1297;22599;-50
2022/09/23 06:46:14;;;;;;;6.40;3.00;;;22.00;66.90;;;;;;215212;1297;22564;-47
2022/09/23 06:51:18;;;;;;;7.50;2.70;;;22.10;66.70;;;;;;215055;1296;26532;-48
2022/09/23 06:56:22;;;;;;;5.60;2.50;;;22.10;67.00;;;;;;214739;1297;24256;-49
2022/09/23 07:01:26;;;;;;;7.20;3.10;;;22.10;66.80;;;;;;214867;1299;24301;-50
2022/09/23 07:06:30;;;;;;;11.70;3.00;;;22.20;67.10;;;;;;215042;1296;22584;-52
2022/09/23 07:11:33;;;;;;;19.60;3.80;;;22.30;67.30;;;;;;214676;1300;22593;-51
2022/09/23 07:16:37;;;;;;;9.50;2.90;;;22.30;67.40;;;;;;214452;1300;22581;-48
2022/09/23 07:21:41;;;;;;;9.50;2.60;;;22.30;67.00;;;;;;214765;1299;22867;-50
2022/09/23 07:26:45;;;;;;;12.00;3.10;;;22.30;67.00;;;;;;214797;1299;22590;-48
2022/09/23 07:31:48;;;;;;;7.50;3.00;;;22.30;66.80;;;;;;214865;1296;22562;-51
2022/09/23 07:36:53;;;;;;;7.00;2.90;;;22.40;66.60;;;;;;214784;1299;22700;-48
2022/09/23 07:41:58;;;;;;;17.10;4.30;;;22.40;66.70;;;;;;214864;1300;22630;-48
2022/09/23 07:47:02;;;;;;;12.30;3.60;;;22.40;66.50;;;;;;215007;1296;22591;-50
2022/09/23 07:52:06;;;;;;;8.10;3.20;;;22.50;66.40;;;;;;214848;1299;22756;-48
2022/09/23 07:57:10;;;;;;;7.00;3.10;;;22.50;65.80;;;;;;214854;1296;25368;-48
2022/09/23 08:02:15;;;;;;;6.50;3.20;;;22.50;66.20;;;;;;214869;1299;23946;-50
2022/09/23 08:07:19;;;;;;;5.90;2.70;;;22.60;65.70;;;;;;214768;1296;25634;-48
2022/09/23 08:12:23;;;;;;;9.00;3.10;;;22.60;65.80;;;;;;215051;1297;22571;-54
2022/09/23 08:17:27;;;;;;;7.10;3.10;;;22.70;65.10;;;;;;214720;1297;24265;-53
2022/09/23 08:22:31;;;;;;;9.40;3.50;;;22.70;65.20;;;;;;215034;1299;25397;-50
2022/09/23 08:27:35;;;;;;;9.30;4.50;;;22.70;65.20;;;;;;215207;1296;25280;-51
2022/09/23 08:32:39;;;;;;;8.70;3.60;;;22.80;64.80;;;;;;214961;1296;22907;-50
2022/09/23 08:37:43;;;;;;;8.40;3.40;;;22.80;64.80;;;;;;214885;1296;24363;-49
2022/09/23 08:42:48;;;;;;;9.60;3.70;;;22.80;64.80;;;;;;215099;1299;25202;-48
2022/09/23 08:48:18;;;;;;;6.50;3.00;;;22.90;64.90;;;;;;214906;1299;22577;-48
2022/09/23 08:53:35;;;;;;;9.30;3.20;;;22.90;64.20;;;;;;215086;1300;25356;-50
2022/09/23 08:58:55;;;;;;;11.40;3.40;;;22.90;63.80;;;;;;215016;1299;26542;-49
2022/09/23 09:04:01;;;;;;;8.00;3.10;;;23.00;63.90;;;;;;214875;1299;22601;-49
2022/09/23 09:09:26;;;;;;;6.30;3.10;;;23.00;63.60;;;;;;214999;1299;22646;-48
2022/09/23 09:14:47;;;;;;;12.70;3.30;;;23.10;63.60;;;;;;214834;1297;22601;-48
2022/09/23 09:19:56;;;;;;;8.90;3.40;;;23.10;63.60;;;;;;214547;1299;22738;-52
2022/09/23 09:25:15;;;;;;;9.90;2.90;;;23.10;63.70;;;;;;214919;1299;22732;-53
2022/09/23 09:30:27;;;;;;;6.90;3.40;;;23.20;63.70;;;;;;214923;1300;22590;-46
2022/09/23 09:36:00;;;;;;;15.10;3.30;;;23.20;63.50;;;;;;214567;1300;22774;-50
2022/09/23 09:41:13;;;;;;;9.10;3.10;;;23.30;63.80;;;;;;215166;1302;22580;-49
2022/09/23 09:46:35;;;;;;;10.80;3.70;;;23.30;63.30;;;;;;214903;1299;22730;-53
2022/09/23 09:51:40;;;;;;;8.70;4.00;;;23.40;63.20;;;;;;214559;1297;24364;-49
2022/09/23 09:56:44;;;;;;;8.50;3.00;;;23.40;63.20;;;;;;214980;1299;22623;-51
2022/09/23 10:02:29;;;;;;;6.30;2.80;;;23.40;63.20;;;;;;214865;1297;23079;-50
2022/09/23 10:07:33;;;;;;;7.40;3.50;;;23.40;63.50;;;;;;214780;1297;25452;-53
2022/09/23 10:12:48;;;;;;;5.70;2.60;;;23.40;63.60;;;;;;214483;1299;22718;-46
2022/09/23 10:17:53;;;;;;;8.10;2.70;;;23.40;63.60;;;;;;214925;1299;22580;-46
2022/09/23 10:23:04;;;;;;;5.60;3.10;;;23.40;63.20;;;;;;215020;1297;24292;-47
2022/09/23 10:28:36;;;;;;;7.10;2.50;;;23.30;63.50;;;;;;215106;1297;25357;-46
2022/09/23 10:33:46;;;;;;;4.70;2.70;;;23.30;63.40;;;;;;214807;1297;22603;-49
2022/09/23 10:50:45;;;;;;;5.00;2.90;;;23.40;64.00;;;;;;214466;1299;24300;-51
2022/09/23 10:56:14;;;;;;;7.90;2.60;;;23.30;63.30;;;;;;214318;1299;23328;-48
2022/09/23 11:02:03;;;;;;;8.90;2.90;;;23.30;63.40;;;;;;214730;1297;22590;-46
2022/09/23 11:07:22;;;;;;;7.70;2.40;;;23.30;63.30;;;;;;214114;1301;22910;-48
2022/09/23 11:12:54;;;;;;;4.80;2.70;;;23.20;63.10;;;;;;214799;1297;24402;-47
2022/09/23 11:18:29;;;;;;;6.10;2.60;;;23.20;63.20;;;;;;214658;1299;24240;-46
2022/09/23 11:24:05;;;;;;;6.40;2.70;;;23.30;63.30;;;;;;214920;1299;22733;-47
2022/09/23 11:30:07;;;;;;;5.00;2.40;;;23.30;62.90;;;;;;214771;1299;24395;-47
2022/09/23 11:35:49;;;;;;;4.40;2.10;;;23.40;63.10;;;;;;213989;1303;22673;-46
2022/09/23 11:41:07;;;;;;;6.00;3.80;;;23.40;63.20;;;;;;214402;1297;24211;-49
2022/09/23 11:46:17;;;;;;;6.00;3.70;;;23.30;63.40;;;;;;214779;1299;22745;-48
2022/09/23 11:51:36;;;;;;;7.10;4.10;;;23.30;63.30;;;;;;215092;1299;22651;-47
2022/09/23 11:56:45;;;;;;;4.80;3.40;;;23.30;63.80;;;;;;214766;1299;22659;-47
2022/09/23 12:01:56;;;;;;;6.30;2.80;;;23.30;63.50;;;;;;215181;1300;22592;-47
2022/09/23 12:07:08;;;;;;;10.80;3.50;;;23.20;63.50;;;;;;214641;1299;24249;-47
2022/09/23 12:12:35;;;;;;;5.80;2.90;;;23.30;63.20;;;;;;214829;1300;24307;-46
2022/09/23 12:17:55;;;;;;;6.30;3.30;;;23.40;63.00;;;;;;214652;1297;22848;-50
2022/09/23 12:23:20;;;;;;;5.90;2.90;;;23.40;62.90;;;;;;215162;1300;23021;-47
2022/09/23 12:28:27;;;;;;;6.00;3.10;;;23.40;63.00;;;;;;215082;1296;25494;-46
2022/09/23 12:33:32;;;;;;;7.60;3.10;;;23.40;63.10;;;;;;215232;1297;22870;-48
2022/09/23 12:38:47;;;;;;;7.20;3.00;;;23.30;63.10;;;;;;214938;1297;22752;-46
2022/09/23 12:44:14;;;;;;;5.80;2.90;;;23.30;63.30;;;;;;214948;1296;22698;-46
2022/09/23 12:49:24;;;;;;;6.10;3.30;;;23.30;63.40;;;;;;215027;1296;25524;-46
2022/09/23 12:54:28;;;;;;;11.20;2.90;;;23.30;63.20;;;;;;214892;1296;24748;-47
2022/09/23 13:00:15;;;;;;;6.10;3.00;;;23.30;63.50;;;;;;215169;1296;22577;-47
2022/09/23 13:10:53;;;;;;;5.60;3.10;;;23.20;63.20;;;;;;215167;1299;23488;-45
2022/09/23 13:16:24;;;;;;;5.60;3.00;;;23.20;63.40;;;;;;214795;1296;22626;-48
2022/09/23 13:21:44;;;;;;;6.20;2.70;;;23.20;63.60;;;;;;213369;1300;2168943;-50
2022/09/23 13:27:18;;;;;;;5.60;2.40;;;23.20;63.50;;;;;;215110;1297;22593;-47
2022/09/23 13:32:31;;;;;;;6.80;2.80;;;23.30;63.50;;;;;;214958;1296;23038;-47
2022/09/23 13:37:48;;;;;;;5.80;3.20;;;23.30;64.60;;;;;;214880;1297;22572;-45
2022/09/23 13:43:01;;;;;;;7.80;2.90;;;23.30;65.20;;;;;;215052;1296;24320;-47
2022/09/23 13:48:15;;;;;;;6.20;2.80;;;23.30;65.00;;;;;;215012;1296;22592;-49
2022/09/23 13:53:30;;;;;;;5.90;3.00;;;23.30;64.70;;;;;;214999;1296;24426;-45
2022/09/23 13:58:35;;;;;;;6.20;3.00;;;23.30;64.60;;;;;;214913;1297;25428;-48
2022/09/23 14:03:39;;;;;;;5.70;2.60;;;23.30;64.70;;;;;;214755;1297;22658;-47
2022/09/23 14:08:46;;;;;;;5.30;2.60;;;23.30;65.40;;;;;;215385;1299;23298;-47
2022/09/23 14:13:54;;;;;;;10.50;3.30;;;23.40;65.20;;;;;;214972;1297;24472;-47
2022/09/23 14:18:59;;;;;;;6.50;2.90;;;23.40;67.20;;;;;;215213;1297;22570;-46
2022/09/23 14:24:09;;;;;;;8.80;3.00;;;23.50;71.70;;;;;;214995;1297;24481;-46
2022/09/23 14:29:23;;;;;;;7.80;2.90;;;23.50;69.90;;;;;;215212;1299;22605;-47
2022/09/23 14:34:42;;;;;;;10.00;3.00;;;23.50;70.30;;;;;;215228;1299;22635;-45
2022/09/23 14:39:49;;;;;;;6.20;2.60;;;23.50;69.70;;;;;;215160;1296;25736;-47
2022/09/23 14:45:01;;;;;;;6.40;2.30;;;23.40;68.30;;;;;;215123;1297;22749;-45
2022/09/23 14:55:30;;;;;;;6.80;2.40;;;23.50;67.90;;;;;;215030;1297;24316;-45
2022/09/23 15:00:33;;;;;;;6.00;2.60;;;23.40;67.40;;;;;;215177;1297;25526;-48
2022/09/23 15:05:44;;;;;;;5.20;2.70;;;23.40;67.70;;;;;;215167;1297;24114;-45
2022/09/23 15:10:49;;;;;;;5.70;2.40;;;23.50;67.80;;;;;;215087;1299;25435;-48
2022/09/23 15:15:54;;;;;;;12.70;3.30;;;23.40;66.90;;;;;;215116;1297;23292;-47
2022/09/23 15:21:07;;;;;;;8.10;2.40;;;23.40;67.20;;;;;;214926;1297;26849;-46
2022/09/23 15:26:53;;;;;;;6.40;2.50;;;23.50;66.50;;;;;;215001;1299;24278;-46
2022/09/23 15:31:59;;;;;;;9.50;2.50;;;23.40;66.60;;;;;;215022;1299;23749;-46
2022/09/23 15:37:11;;;;;;;5.90;3.00;;;23.40;66.90;;;;;;215048;1297;22646;-44
2022/09/23 15:42:17;;;;;;;;;;;23.30;66.10;;;;;;215104;1297;24427;-45
2022/09/23 15:47:32;;;;;;;8.00;2.40;;;23.30;66.30;;;;;;214995;1297;24354;-47
2022/09/23 15:52:36;;;;;;;6.80;2.30;;;23.20;66.50;;;;;;214849;1297;26762;-46
2022/09/23 15:57:44;;;;;;;7.70;2.70;;;23.20;66.40;;;;;;215287;1296;22582;-45
2022/09/23 16:03:13;;;;;;;7.40;2.50;;;23.20;66.60;;;;;;215144;1296;24405;-45
2022/09/23 16:08:22;;;;;;;12.00;2.60;;;23.20;66.40;;;;;;214982;1300;22872;-47
2022/09/23 16:13:29;;;;;;;9.30;2.80;;;23.10;66.40;;;;;;214776;1299;24230;-44
2022/09/23 16:18:50;;;;;;;8.70;3.40;;;23.10;65.70;;;;;;215019;1297;22804;-48
2022/09/23 16:24:13;;;;;;;10.90;4.30;;;23.10;66.70;;;;;;215069;1297;24530;-48
2022/09/23 16:29:26;;;;;;;8.00;3.40;;;23.20;67.10;;;;;;214975;1297;24346;-52
2022/09/23 16:34:44;;;;;;;11.70;4.00;;;23.10;67.00;;;;;;214918;1296;22588;-51
2022/09/23 16:39:55;;;;;;;;;;;23.10;67.10;;;;;;214839;1299;24495;-46
2022/09/23 16:45:21;;;;;;;13.20;3.50;;;23.10;67.10;;;;;;214958;1297;22749;-46
2022/09/23 16:50:34;;;;;;;18.20;4.50;;;23.10;66.90;;;;;;214792;1296;22604;-48
2022/09/23 16:55:58;;;;;;;13.40;4.20;;;23.10;66.90;;;;;;215081;1296;22733;-46
2022/09/23 17:06:58;;;;;;;16.00;4.70;;;23.10;66.60;;;;;;214937;1297;24147;-49
2022/09/23 17:12:38;;;;;;;9.90;4.40;;;23.20;67.30;;;;;;214851;1296;22691;-47
2022/09/23 17:18:00;;;;;;;19.20;4.50;;;23.10;66.50;;;;;;214897;1296;24326;-51
2022/09/23 17:23:05;;;;;;;15.50;5.00;;;23.30;67.00;;;;;;214833;1297;22706;-49
2022/09/23 17:28:12;;;;;;;16.50;4.50;;;23.20;66.90;;;;;;215061;1297;24301;-49
2022/09/23 17:33:29;;;;;;;16.70;4.70;;;23.20;66.50;;;;;;214928;1297;25391;-49
2022/09/23 17:38:47;;;;;;;11.70;4.40;;;23.20;66.40;;;;;;215071;1296;24253;-48
2022/09/23 17:44:03;;;;;;;16.60;4.70;;;23.10;66.40;;;;;;214975;1296;22611;-51
2022/09/23 17:49:08;;;;;;;18.30;5.50;;;23.00;66.60;;;;;;215360;1299;22586;-53
2022/09/23 17:54:18;;;;;;;8.80;4.90;;;23.00;66.20;;;;;;214960;1297;22751;-48
2022/09/23 17:59:22;;;;;;;12.70;5.20;;;23.00;66.40;;;;;;214709;1297;25442;-51
2022/09/23 18:04:29;;;;;;;11.40;5.50;;;22.90;66.80;;;;;;215044;1297;22606;-52
2022/09/23 18:09:39;;;;;;;13.00;4.40;;;22.90;66.60;;;;;;215022;1297;22571;-52
2022/09/23 18:14:44;;;;;;;10.80;4.70;;;22.90;66.20;;;;;;215148;1296;22569;-47
2022/09/23 18:19:54;;;;;;;9.40;5.20;;;22.90;66.40;;;;;;214826;1296;24329;-50
2022/09/23 18:25:00;;;;;;;11.30;5.10;;;22.90;66.30;;;;;;215355;1296;23252;-51
2022/09/23 18:30:53;;;;;;;12.60;5.10;;;22.90;66.40;;;;;;214992;1297;22578;-48
2022/09/23 18:36:03;;;;;;;12.20;5.60;;;22.90;66.60;;;;;;214872;1299;22576;-47
2022/09/23 18:41:16;;;;;;;14.90;5.40;;;22.90;66.50;;;;;;215153;1296;22599;-48
2022/09/23 18:46:28;;;;;;;;;;;22.90;66.80;;;;;;215122;1299;23433;-48
2022/09/23 18:52:08;;;;;;;10.60;5.10;;;22.90;67.00;;;;;;215497;1296;24408;-48
2022/09/23 18:57:16;;;;;;;15.50;7.20;;;22.90;67.10;;;;;;215424;1299;22576;-47
2022/09/23 19:02:45;;;;;;;17.10;6.80;;;22.90;67.20;;;;;;215662;1296;22680;-50
2022/09/23 19:08:35;;;;;;;18.40;6.60;;;22.80;67.70;;;;;;215225;1296;22571;-46
2022/09/23 19:13:57;;;;;;;13.40;7.10;;;22.70;67.70;;;;;;215161;1299;24272;-47
2022/09/23 19:19:09;;;;;;;14.60;7.00;;;22.70;67.60;;;;;;214804;1299;22632;-51
2022/09/23 19:24:19;;;;;;;12.40;7.40;;;22.70;68.10;;;;;;215231;1296;26634;-47
2022/09/23 19:29:49;;;;;;;17.70;7.50;;;22.70;67.60;;;;;;215178;1296;22572;-45
2022/09/23 19:35:09;;;;;;;19.60;7.80;;;22.70;67.60;;;;;;214871;1296;24337;-47
2022/09/23 19:40:35;;;;;;;13.80;7.70;;;22.60;68.70;;;;;;215021;1296;24348;-49
2022/09/23 19:46:11;;;;;;;13.60;7.60;;;22.70;71.60;;;;;;213853;1297;22585;-51
2022/09/23 19:51:48;;;;;;;15.20;7.60;;;22.70;71.00;;;;;;212742;1296;25398;-48
2022/09/23 19:57:12;;;;;;;12.20;7.00;;;22.70;71.30;;;;;;212794;1297;22757;-49
2022/09/23 20:08:08;;;;;;;17.50;8.20;;;22.60;71.30;;;;;;214822;1296;25575;-45
2022/09/23 20:13:19;;;;;;;19.30;7.60;;;22.60;70.90;;;;;;212994;1296;25437;-49
2022/09/23 20:18:32;;;;;;;20.30;9.50;;;22.60;69.90;;;;;;212811;1296;23802;-53
2022/09/23 20:23:43;;;;;;;25.50;10.10;;;22.60;70.20;;;;;;214547;1299;24293;-51
2022/09/23 20:28:49;;;;;;;17.30;8.20;;;22.50;69.20;;;;;;214699;1296;24665;-46
2022/09/23 20:34:04;;;;;;;25.40;10.50;;;22.50;70.30;;;;;;214320;1299;24290;-51
2022/09/23 20:39:23;;;;;;;20.20;8.10;;;22.50;70.10;;;;;;213640;1297;24972;-52
2022/09/23 20:44:28;;;;;;;17.10;8.60;;;22.40;70.10;;;;;;212115;1297;24458;-50
2022/09/23 20:49:47;;;;;;;13.60;7.10;;;22.40;69.80;;;;;;213495;1297;25356;-50
2022/09/23 20:55:05;;;;;;;14.30;7.90;;;22.40;69.90;;;;;;214895;1299;23198;-47
2022/09/23 21:00:14;;;;;;;13.30;8.20;;;22.40;69.50;;;;;;214672;1299;24548;-48
2022/09/23 21:05:18;;;;;;;13.20;7.30;;;22.40;69.40;;;;;;214470;1296;22818;-49
2022/09/23 21:10:25;;;;;;;14.70;7.90;;;22.30;69.10;;;;;;214050;1296;23568;-50
2022/09/23 21:16:41;;;;;;;;;;;;;;;;;;;;;
2022/09/23 21:22:09;;;;;;;12.40;7.90;;;22.30;70.90;;;;;;214804;1296;22657;-48
2022/09/23 21:27:43;;;;;;;17.60;8.30;;;22.30;70.10;;;;;;214380;1296;22670;-46
2022/09/23 21:32:55;;;;;;;16.90;8.40;;;22.30;70.50;;;;;;214785;1296;22591;-45
2022/09/23 21:38:22;;;;;;;20.80;8.70;;;22.40;71.60;;;;;;214571;1298;24310;-46
2022/09/23 21:43:38;;;;;;;16.40;8.30;;;22.40;73.30;;;;;;214101;1302;22732;-46
2022/09/23 21:49:04;;;;;;;16.40;6.70;;;22.40;74.30;;;;;;214354;1301;22629;-46
2022/09/23 21:54:50;;;;;;;10.50;6.70;;;22.40;75.00;;;;;;213779;1302;22579;-45
2022/09/23 22:00:16;;;;;;;13.20;7.20;;;22.40;75.00;;;;;;213810;1302;24264;-47
2022/09/23 22:06:25;;;;;;;11.60;6.80;;;22.30;74.40;;;;;;213642;1303;22573;-47
2022/09/23 22:17:10;;;;;;;13.50;6.90;;;22.30;74.40;;;;;;214355;1299;22603;-51
2022/09/23 22:22:35;;;;;;;17.20;7.10;;;22.30;74.20;;;;;;214765;1299;25682;-46
2022/09/23 22:32:39;;;;;;;14.30;6.70;;;22.30;74.20;;;;;;214769;1299;25553;-47
2022/09/23 22:33:21;;;;;;;14.40;7.30;;;22.30;74.30;;;;;;214904;1299;23041;-46
2022/09/23 22:38:40;;;;;;;13.90;7.10;;;22.20;73.80;;;;;;214339;1299;24283;-45
2022/09/23 22:43:45;;;;;;;17.70;8.20;;;22.20;73.80;;;;;;214625;1299;23482;-46
2022/09/23 22:48:52;;;;;;;12.50;6.40;;;22.20;73.90;;;;;;214956;1299;25483;-46
2022/09/23 22:54:00;;;;;;;10.80;6.50;;;22.20;74.30;;;;;;214731;1299;22588;-46
2022/09/23 22:59:07;;;;;;;11.70;6.30;;;22.20;73.70;;;;;;214874;1299;22604;-45
2022/09/23 23:04:12;;;;;;;12.50;6.40;;;22.20;73.50;;;;;;215023;1299;25485;-51
2022/09/23 23:09:18;;;;;;;13.40;6.60;;;22.20;73.40;;;;;;214574;1298;22940;-49
2022/09/23 23:14:27;;;;;;;11.10;6.50;;;22.20;73.20;;;;;;215043;1297;22601;-49
2022/09/23 23:19:35;;;;;;;10.40;6.40;;;22.20;73.10;;;;;;214956;1299;22835;-47
2022/09/23 23:24:46;;;;;;;10.80;6.00;;;22.20;73.00;;;;;;215239;1299;25462;-47
2022/09/23 23:29:52;;;;;;;15.30;6.60;;;22.10;72.60;;;;;;215250;1299;22831;-46
2022/09/23 23:34:57;;;;;;;11.70;6.20;;;22.10;72.20;;;;;;214939;1299;24304;-47
2022/09/23 23:40:13;;;;;;;13.80;6.30;;;22.00;71.60;;;;;;214886;1299;25339;-46
2022/09/23 23:45:18;;;;;;;11.30;6.40;;;22.00;71.50;;;;;;215047;1299;24031;-48
2022/09/23 23:50:29;;;;;;;10.60;5.90;;;22.10;71.70;;;;;;214832;1299;22654;-48
2022/09/23 23:55:39;;;;;;;9.10;5.40;;;22.00;71.60;;;;;;216875;1299;22651;-46
